Terminal Aerodrome Forecast
Issued by NWS

Home | Current Version | Previous Version | Text Only | Print | Product List | Glossary On
Versions: 1 2 3 4 5 6 7 8 9 10 11 12 13 14 15 16 17 18
000
FTUS46 KPDT 092340
TAFYKM
TAF
KYKM 092340Z 1000/1024 22007KT P6SM BKN030
      TEMPO 1000/1004 1SM -SN BKN015 OVC035
     FM100400 22007KT 5SM -SN BKN015 OVC030
     FM101200 25005KT P6SM VCSH SCT035 BKN050=

USA.gov is the U.S. government's official web portal to all federal, state and local government web resources and services.